Time;durP1;ratioP1;P1;durP2;ratioP2;P2;SDS_P1;SDS_P2;PMS_P1;PMS_P2;Temp;Humidity;BMP_temperature;BMP_pressure;BME280_temperature;BME280_humidity;BME280_pressure;Samples;Min_cycle;Max_cycle;Signal;HPM_P1;HPM_P2
2021/09/04 00:02:11;;;;;;;28.67;20.15;;;14.20;99.90;;;;;;5106207;28;20217;-83
2021/09/04 00:04:40;;;;;;;28.52;19.73;;;14.20;99.90;;;;;;5101919;28;20471;-83
2021/09/04 00:07:10;;;;;;;28.20;19.50;;;14.30;99.90;;;;;;5114355;28;20206;-85
2021/09/04 00:09:37;;;;;;;27.80;21.65;;;14.20;99.90;;;;;;5116317;28;20229;-84
2021/09/04 00:12:05;;;;;;;31.27;21.73;;;14.30;99.90;;;;;;5118080;28;20441;-84
2021/09/04 00:14:34;;;;;;;23.20;20.60;;;14.20;99.90;;;;;;5116527;28;20232;-85
2021/09/04 00:17:01;;;;;;;26.13;19.98;;;14.20;99.90;;;;;;5115623;28;20197;-84
2021/09/04 00:19:59;;;;;;;23.63;20.77;;;14.20;99.90;;;;;;5099590;28;20205;-86
2021/09/04 00:22:26;;;;;;;28.83;21.00;;;14.00;99.90;;;;;;5119965;28;20402;-85
2021/09/04 00:24:54;;;;;;;26.20;21.67;;;13.80;99.90;;;;;;5118300;28;20525;-86
2021/09/04 00:27:21;;;;;;;29.42;21.00;;;13.80;99.90;;;;;;5094925;28;20265;-85
2021/09/04 00:29:48;;;;;;;22.83;19.35;;;13.80;99.90;;;;;;5116300;28;20205;-86
2021/09/04 00:32:15;;;;;;;34.47;19.42;;;13.80;99.90;;;;;;5097824;28;20229;-86
2021/09/04 00:34:42;;;;;;;28.33;19.70;;;14.10;99.90;;;;;;5113260;28;20201;-85
2021/09/04 00:37:10;;;;;;;23.60;18.80;;;13.90;99.90;;;;;;5116033;28;20206;-85
2021/09/04 00:39:37;;;;;;;22.27;19.42;;;13.80;99.90;;;;;;5115352;28;20198;-87
2021/09/04 00:42:04;;;;;;;21.88;15.68;;;13.90;99.90;;;;;;5099944;28;20248;-85
2021/09/04 00:44:31;;;;;;;21.05;16.92;;;14.00;99.90;;;;;;5095095;28;20453;-87
2021/09/04 00:47:04;;;;;;;29.55;19.83;;;14.00;99.90;;;;;;5101770;28;20338;-86
2021/09/04 00:49:35;;;;;;;22.92;17.55;;;14.00;99.90;;;;;;5123692;28;20234;-86
2021/09/04 00:52:05;;;;;;;20.38;17.35;;;14.00;99.90;;;;;;5122282;28;20221;-85
2021/09/04 00:54:33;;;;;;;23.33;17.02;;;14.00;99.90;;;;;;5120574;28;20197;-85
2021/09/04 00:57:01;;;;;;;24.58;17.65;;;14.00;99.90;;;;;;5116075;28;20198;-85
2021/09/04 00:59:29;;;;;;;21.60;17.85;;;14.00;99.90;;;;;;5120649;28;20205;-86
2021/09/04 01:02:13;;;;;;;23.13;16.02;;;14.00;99.90;;;;;;5113950;28;20708;-87
2021/09/04 01:04:41;;;;;;;26.48;20.27;;;14.00;99.90;;;;;;5115118;28;20284;-86
2021/09/04 01:07:08;;;;;;;21.45;17.92;;;14.00;99.90;;;;;;5116821;28;20254;-86
2021/09/04 01:09:35;;;;;;;22.23;17.00;;;13.80;99.90;;;;;;5118269;28;20247;-86
2021/09/04 01:12:02;;;;;;;22.42;17.40;;;13.90;99.90;;;;;;5099753;28;20580;-87
2021/09/04 01:14:29;;;;;;;21.70;16.50;;;13.90;99.90;;;;;;5098060;28;20629;-86
2021/09/04 01:16:58;;;;;;;24.17;18.38;;;13.80;99.90;;;;;;5116324;28;20193;-85
2021/09/04 01:19:25;;;;;;;28.85;18.55;;;13.80;99.90;;;;;;5097875;28;20198;-85
2021/09/04 01:21:53;;;;;;;26.33;18.75;;;13.80;99.90;;;;;;5111187;28;20246;-84
2021/09/04 01:24:20;;;;;;;32.33;19.52;;;13.80;99.90;;;;;;5121489;28;20243;-84
2021/09/04 01:26:47;;;;;;;23.77;17.98;;;13.70;99.90;;;;;;5094759;28;20231;-85
2021/09/04 01:29:14;;;;;;;21.98;18.98;;;13.70;99.90;;;;;;5099720;28;20205;-85
2021/09/04 01:31:41;;;;;;;27.42;19.55;;;13.70;99.90;;;;;;5117158;28;20221;-84
2021/09/04 01:34:10;;;;;;;21.63;18.98;;;13.70;99.90;;;;;;5102945;28;20201;-86
2021/09/04 01:36:41;;;;;;;29.25;20.17;;;13.30;99.90;;;;;;5117260;28;20269;-84
2021/09/04 01:39:09;;;;;;;23.05;18.25;;;13.10;99.90;;;;;;5121089;28;20197;-85
2021/09/04 01:41:42;;;;;;;32.47;20.90;;;13.20;99.90;;;;;;5121951;28;20209;-84
2021/09/04 01:44:09;;;;;;;27.30;20.15;;;13.30;99.90;;;;;;5120779;28;20201;-86
2021/09/04 01:46:36;;;;;;;39.65;29.00;;;13.30;99.90;;;;;;5102614;28;20306;-84
2021/09/04 01:49:03;;;;;;;30.95;25.33;;;13.30;99.90;;;;;;5112812;28;20415;-86
2021/09/04 01:51:31;;;;;;;32.20;24.40;;;13.40;99.90;;;;;;5100660;28;20234;-86
2021/09/04 01:53:59;;;;;;;33.75;24.92;;;13.50;99.90;;;;;;5102146;28;20250;-85
2021/09/04 01:56:26;;;;;;;37.92;24.75;;;13.60;99.90;;;;;;5116310;28;20197;-85
2021/09/04 01:58:53;;;;;;;28.65;22.60;;;13.50;99.90;;;;;;5096530;28;20323;-85
2021/09/04 02:01:21;;;;;;;28.75;20.83;;;13.50;99.90;;;;;;5109914;28;20682;-85
2021/09/04 02:03:48;;;;;;;25.15;21.70;;;13.60;99.90;;;;;;5096928;28;20371;-85
2021/09/04 02:06:15;;;;;;;25.83;21.77;;;13.60;99.90;;;;;;5118966;28;20193;-85
2021/09/04 02:08:42;;;;;;;31.02;23.65;;;13.60;99.90;;;;;;5118676;28;20193;-85
2021/09/04 02:11:09;;;;;;;27.20;20.77;;;13.60;99.90;;;;;;5110167;28;20259;-85
2021/09/04 02:13:36;;;;;;;25.48;19.55;;;13.50;99.90;;;;;;5116213;28;20229;-83
2021/09/04 02:16:05;;;;;;;32.70;21.92;;;13.40;99.90;;;;;;5118120;28;20202;-85
2021/09/04 02:18:33;;;;;;;32.45;25.65;;;13.20;99.90;;;;;;5119906;28;20405;-83
2021/09/04 02:21:01;;;;;;;31.25;23.17;;;13.20;99.90;;;;;;5100168;28;20283;-85
2021/09/04 02:23:28;;;;;;;33.80;22.75;;;13.10;99.90;;;;;;5125194;28;20209;-85
2021/09/04 02:25:55;;;;;;;27.90;23.08;;;13.10;99.90;;;;;;5120066;28;20206;-85
2021/09/04 02:28:22;;;;;;;31.10;23.45;;;13.00;99.90;;;;;;5123974;28;20202;-84
2021/09/04 02:30:49;;;;;;;30.35;24.00;;;13.00;99.90;;;;;;5106979;28;20201;-83
2021/09/04 02:33:16;;;;;;;32.42;25.50;;;13.00;99.90;;;;;;5089642;28;20247;-84
2021/09/04 02:35:43;;;;;;;31.80;25.77;;;12.90;99.90;;;;;;5124927;28;20201;-84
2021/09/04 02:38:10;;;;;;;31.23;25.35;;;12.90;99.90;;;;;;5102459;28;20209;-84
2021/09/04 02:40:37;;;;;;;31.33;24.23;;;12.90;99.90;;;;;;5122263;28;20511;-84
2021/09/04 02:43:05;;;;;;;31.17;24.92;;;12.90;99.90;;;;;;5123274;28;20196;-84
2021/09/04 02:45:32;;;;;;;37.17;26.00;;;12.90;99.90;;;;;;5101693;28;20265;-86
2021/09/04 02:47:59;;;;;;;51.40;28.20;;;13.00;99.90;;;;;;5118640;28;20202;-85
2021/09/04 02:50:26;;;;;;;36.53;27.50;;;13.00;99.90;;;;;;5112331;28;20229;-84
2021/09/04 02:52:53;;;;;;;32.67;24.40;;;13.00;99.90;;;;;;5109023;28;20260;-85
2021/09/04 02:55:20;;;;;;;34.95;26.02;;;12.90;99.90;;;;;;5112006;28;20382;-84
2021/09/04 02:57:47;;;;;;;32.30;25.13;;;12.80;99.90;;;;;;5120810;28;20235;-85
2021/09/04 03:00:15;;;;;;;38.05;24.70;;;12.60;99.90;;;;;;5122112;28;20247;-85
2021/09/04 03:02:45;;;;;;;34.47;24.98;;;12.70;99.90;;;;;;5101845;28;20414;-86
2021/09/04 03:05:13;;;;;;;36.83;27.00;;;12.80;99.90;;;;;;5094435;28;20231;-86
2021/09/04 03:07:40;;;;;;;34.05;22.73;;;12.90;99.90;;;;;;5095584;28;20212;-85
2021/09/04 03:10:07;;;;;;;30.45;24.40;;;12.90;99.90;;;;;;5116192;28;20244;-86
2021/09/04 03:12:35;;;;;;;26.88;23.85;;;12.90;99.90;;;;;;5122483;28;20225;-84
2021/09/04 03:15:02;;;;;;;33.25;26.15;;;12.90;99.90;;;;;;5120109;28;20255;-84
2021/09/04 03:17:30;;;;;;;34.95;22.30;;;12.90;99.90;;;;;;5117000;28;20197;-84
2021/09/04 03:19:57;;;;;;;37.10;27.33;;;12.80;99.90;;;;;;5120786;28;20224;-85
2021/09/04 03:22:24;;;;;;;34.15;24.67;;;12.80;99.90;;;;;;5115092;28;20227;-86
2021/09/04 03:24:51;;;;;;;33.35;24.85;;;12.80;99.90;;;;;;5119626;28;20499;-86
2021/09/04 03:27:18;;;;;;;30.25;23.65;;;12.90;99.90;;;;;;5112990;28;20197;-86
2021/09/04 03:29:46;;;;;;;38.78;24.73;;;12.90;99.90;;;;;;5101304;28;20193;-85
2021/09/04 03:32:13;;;;;;;33.03;25.73;;;12.80;99.90;;;;;;5097271;28;20275;-84
2021/09/04 03:34:40;;;;;;;43.17;26.38;;;12.60;99.90;;;;;;5102567;28;20207;-85
2021/09/04 03:37:07;;;;;;;39.70;26.13;;;12.50;99.90;;;;;;5115384;28;20205;-85
2021/09/04 03:39:34;;;;;;;40.83;26.63;;;12.60;99.90;;;;;;5122511;28;20205;-86
2021/09/04 03:42:01;;;;;;;34.17;24.27;;;12.70;99.90;;;;;;5103517;28;20196;-86
2021/09/04 03:44:28;;;;;;;34.17;25.38;;;12.70;99.90;;;;;;5123738;28;20201;-85
2021/09/04 03:46:55;;;;;;;28.73;23.25;;;12.70;99.90;;;;;;5097129;28;20243;-85
2021/09/04 03:49:23;;;;;;;35.13;24.20;;;12.60;99.90;;;;;;5123889;28;20368;-85
2021/09/04 03:51:50;;;;;;;32.03;24.05;;;12.70;99.90;;;;;;5117980;28;20194;-85
2021/09/04 03:54:17;;;;;;;32.35;22.65;;;12.70;99.90;;;;;;5098175;28;20345;-86
2021/09/04 03:56:44;;;;;;;32.25;23.13;;;12.70;99.90;;;;;;5120533;28;20201;-85
2021/09/04 03:59:11;;;;;;;32.72;23.35;;;12.50;99.90;;;;;;5119269;28;20490;-85
2021/09/04 04:01:38;;;;;;;31.40;24.63;;;12.30;99.90;;;;;;5115390;28;20193;-85
2021/09/04 04:04:06;;;;;;;31.02;23.70;;;12.30;99.90;;;;;;5118761;28;20227;-85
2021/09/04 04:06:33;;;;;;;34.78;23.90;;;12.30;99.90;;;;;;5116203;28;20501;-85
2021/09/04 04:09:00;;;;;;;29.05;21.63;;;12.30;99.90;;;;;;5120337;28;20254;-84
2021/09/04 04:11:27;;;;;;;28.58;22.08;;;12.30;99.90;;;;;;5115266;28;20270;-84
2021/09/04 04:13:54;;;;;;;29.05;23.75;;;12.30;99.90;;;;;;5122204;28;20273;-85
2021/09/04 04:16:21;;;;;;;28.85;21.80;;;12.30;99.90;;;;;;5097588;28;20220;-85
2021/09/04 04:18:48;;;;;;;24.90;20.70;;;12.30;99.90;;;;;;5118897;28;20198;-85
2021/09/04 04:21:15;;;;;;;32.53;21.75;;;12.30;99.90;;;;;;5108198;28;20212;-86
2021/09/04 04:23:43;;;;;;;27.58;22.35;;;12.40;99.90;;;;;;5110327;28;20198;-86
2021/09/04 04:26:10;;;;;;;32.60;24.02;;;12.30;99.90;;;;;;5112156;28;20194;-86
2021/09/04 04:28:37;;;;;;;31.42;20.73;;;12.30;99.90;;;;;;5113638;28;20212;-85
2021/09/04 04:31:04;;;;;;;37.83;24.40;;;12.40;99.90;;;;;;5120185;28;20208;-85
2021/09/04 04:33:31;;;;;;;31.65;24.15;;;12.40;99.90;;;;;;5094853;28;20232;-84
2021/09/04 04:35:59;;;;;;;33.95;25.70;;;12.30;99.90;;;;;;5100202;28;20207;-84
2021/09/04 04:38:26;;;;;;;32.95;24.13;;;12.40;99.90;;;;;;5109271;28;20212;-85
2021/09/04 04:40:53;;;;;;;31.00;21.90;;;12.50;99.90;;;;;;5097581;28;20220;-85
2021/09/04 04:43:23;;;;;;;29.50;25.42;;;12.50;99.90;;;;;;5114999;28;20197;-85
2021/09/04 04:45:50;;;;;;;29.92;25.77;;;12.50;99.90;;;;;;5120430;28;20204;-86
2021/09/04 04:48:19;;;;;;;30.88;23.55;;;12.60;99.90;;;;;;5102096;28;20510;-84
2021/09/04 04:50:46;;;;;;;34.83;25.40;;;12.70;99.90;;;;;;5097496;28;20507;-85
2021/09/04 04:53:13;;;;;;;29.50;23.52;;;12.80;99.90;;;;;;5116024;28;20279;-85
2021/09/04 04:55:41;;;;;;;31.13;25.45;;;12.90;99.90;;;;;;5116658;28;20204;-84
2021/09/04 04:58:08;;;;;;;30.00;24.48;;;13.00;99.90;;;;;;5120489;28;20209;-85
2021/09/04 05:00:35;;;;;;;39.78;24.05;;;13.00;99.90;;;;;;5094646;28;20208;-86
2021/09/04 05:03:03;;;;;;;30.25;25.35;;;13.00;99.90;;;;;;5101156;28;20201;-86
2021/09/04 05:05:31;;;;;;;32.40;24.73;;;13.10;99.90;;;;;;5106784;28;20564;-86
2021/09/04 05:07:58;;;;;;;37.60;23.80;;;13.30;99.90;;;;;;5118210;28;20201;-85
2021/09/04 05:10:26;;;;;;;32.72;24.17;;;13.20;99.90;;;;;;5112359;28;20423;-84
2021/09/04 05:12:53;;;;;;;34.80;26.95;;;13.20;99.90;;;;;;5115648;28;20221;-85
2021/09/04 05:15:20;;;;;;;33.60;25.10;;;13.20;99.90;;;;;;5115075;28;21002;-83
2021/09/04 05:17:47;;;;;;;40.38;29.20;;;13.10;99.90;;;;;;5097909;28;20194;-82
2021/09/04 05:20:14;;;;;;;74.05;59.65;;;13.00;99.90;;;;;;5120458;28;20627;-87
2021/09/04 05:22:42;;;;;;;61.60;50.60;;;13.10;99.90;;;;;;5104150;28;20205;-86
2021/09/04 05:25:10;;;;;;;100.43;71.93;;;13.30;99.90;;;;;;5100507;28;20414;-86
2021/09/04 05:27:37;;;;;;;90.53;69.00;;;13.60;99.90;;;;;;5085968;28;20198;-86
2021/09/04 05:30:05;;;;;;;93.05;68.28;;;13.60;99.90;;;;;;5095694;28;20198;-87
2021/09/04 05:32:32;;;;;;;84.38;66.45;;;13.60;99.90;;;;;;5120817;28;20201;-87
2021/09/04 05:35:02;;;;;;;86.10;68.13;;;13.80;99.90;;;;;;5120938;28;20190;-86
2021/09/04 05:37:30;;;;;;;80.07;62.40;;;13.70;99.90;;;;;;5095768;28;20276;-87
2021/09/04 05:39:57;;;;;;;59.78;50.33;;;14.00;99.90;;;;;;5119463;28;20193;-86
2021/09/04 05:42:24;;;;;;;53.05;42.90;;;14.40;99.90;;;;;;5121139;28;20202;-86
2021/09/04 05:44:51;;;;;;;42.13;35.53;;;14.60;99.90;;;;;;5120211;28;20197;-86
2021/09/04 05:47:18;;;;;;;48.80;36.67;;;14.50;99.90;;;;;;5121122;28;20249;-86
2021/09/04 05:49:45;;;;;;;38.97;28.55;;;14.50;99.90;;;;;;5119908;28;20524;-87
2021/09/04 05:52:12;;;;;;;39.45;24.15;;;14.80;99.90;;;;;;5120335;28;20205;-87
2021/09/04 05:54:39;;;;;;;22.17;16.05;;;14.80;99.90;;;;;;5114661;28;20225;-87
2021/09/04 05:57:06;;;;;;;22.40;16.63;;;15.00;99.90;;;;;;5116348;28;20206;-85
2021/09/04 05:59:33;;;;;;;23.98;15.40;;;15.10;99.90;;;;;;5090676;28;20202;-85
2021/09/04 06:02:01;;;;;;;23.35;15.40;;;15.30;99.90;;;;;;5120403;28;20215;-86
2021/09/04 06:04:28;;;;;;;23.40;14.97;;;15.60;99.90;;;;;;5098868;28;20215;-88
2021/09/04 06:06:55;;;;;;;18.13;13.57;;;16.00;99.90;;;;;;5096522;28;20834;-88
2021/09/04 06:09:22;;;;;;;18.57;13.90;;;16.40;99.90;;;;;;5118913;28;20413;-86
2021/09/04 06:11:49;;;;;;;17.30;13.20;;;16.60;99.90;;;;;;5103432;28;20627;-87
2021/09/04 06:14:17;;;;;;;25.90;12.30;;;16.90;99.90;;;;;;5097936;28;20455;-88
2021/09/04 06:16:44;;;;;;;20.27;12.70;;;17.20;99.90;;;;;;5115209;28;20581;-89
2021/09/04 06:19:11;;;;;;;14.60;11.60;;;17.70;99.90;;;;;;5096655;28;20466;-87
2021/09/04 06:21:39;;;;;;;15.90;13.43;;;18.00;99.90;;;;;;5102121;28;20452;-88
2021/09/04 06:24:06;;;;;;;14.00;12.50;;;18.30;99.90;;;;;;5108861;28;20416;-85
2021/09/04 06:26:33;;;;;;;13.60;11.53;;;18.90;99.90;;;;;;5120412;28;20416;-86
2021/09/04 06:29:01;;;;;;;14.90;12.03;;;19.50;99.90;;;;;;5117371;28;20412;-87
2021/09/04 06:31:28;;;;;;;18.20;13.17;;;20.30;99.90;;;;;;5098426;28;20420;-88
2021/09/04 06:33:58;;;;;;;16.27;14.60;;;21.10;99.90;;;;;;5117046;28;20562;-87
2021/09/04 06:36:25;;;;;;;20.57;14.33;;;21.90;99.90;;;;;;5087306;28;20466;-87
2021/09/04 06:38:52;;;;;;;15.77;14.17;;;22.20;99.90;;;;;;5099465;28;20585;-88
2021/09/04 06:41:19;;;;;;;16.77;14.60;;;22.80;99.90;;;;;;5102536;28;20434;-88
2021/09/04 06:43:47;;;;;;;17.03;14.97;;;22.80;99.90;;;;;;5117606;28;20512;-88
2021/09/04 06:46:14;;;;;;;15.77;13.93;;;23.50;99.90;;;;;;5104004;28;20760;-86
2021/09/04 06:48:41;;;;;;;19.03;13.30;;;24.20;99.90;;;;;;5092027;28;20640;-88
2021/09/04 06:51:08;;;;;;;15.80;14.07;;;24.50;99.90;;;;;;5119683;28;20439;-85
2021/09/04 06:53:36;;;;;;;18.20;15.20;;;24.70;99.90;;;;;;5099902;28;20533;-92
2021/09/04 06:56:06;;;;;;;16.30;14.63;;;25.30;99.90;;;;;;5104000;28;20594;-87
2021/09/04 06:58:33;;;;;;;14.97;13.03;;;25.20;99.90;;;;;;5117676;28;20427;-89
2021/09/04 07:01:01;;;;;;;17.20;15.37;;;26.00;99.90;;;;;;5122461;28;20483;-85
2021/09/04 07:03:29;;;;;;;19.27;15.20;;;26.90;99.90;;;;;;5120208;28;20447;-89
2021/09/04 07:05:56;;;;;;;17.07;15.43;;;28.00;98.10;;;;;;5095394;28;20446;-89
2021/09/04 07:08:23;;;;;;;18.03;16.23;;;27.90;97.40;;;;;;5107759;28;20419;-87
2021/09/04 07:10:51;;;;;;;17.43;15.80;;;27.50;97.10;;;;;;5089785;28;20446;-88
2021/09/04 07:13:18;;;;;;;16.87;15.23;;;27.10;97.40;;;;;;5127506;28;20472;-91
2021/09/04 07:15:45;;;;;;;16.63;15.07;;;27.30;97.30;;;;;;5125079;28;20523;-89
2021/09/04 07:18:13;;;;;;;17.93;16.13;;;27.50;96.60;;;;;;5124668;28;20774;-90
2021/09/04 07:20:40;;;;;;;16.97;15.47;;;27.60;96.30;;;;;;5106958;28;20774;-88
2021/09/04 07:23:07;;;;;;;18.33;16.67;;;27.70;95.80;;;;;;5100442;28;20457;-87
2021/09/04 07:25:37;;;;;;;18.13;16.43;;;28.00;95.10;;;;;;5122964;28;20421;-91
2021/09/04 07:28:06;;;;;;;17.23;15.87;;;29.50;93.30;;;;;;5108827;28;20647;-88
2021/09/04 07:30:34;;;;;;;18.40;15.93;;;30.00;91.80;;;;;;5107024;28;20497;-90
2021/09/04 07:33:01;;;;;;;16.90;15.17;;;30.20;90.90;;;;;;5123560;28;20443;-87
2021/09/04 07:35:29;;;;;;;17.03;15.50;;;29.90;90.70;;;;;;5099617;28;20617;-89
2021/09/04 07:37:59;;;;;;;17.83;16.20;;;29.50;91.10;;;;;;5114702;28;20442;-91
2021/09/04 07:40:26;;;;;;;18.53;16.93;;;28.90;91.90;;;;;;5121980;28;20615;-93
2021/09/04 07:42:53;;;;;;;20.37;18.53;;;29.80;90.60;;;;;;5101330;28;20434;-89
2021/09/04 07:45:21;;;;;;;17.80;16.20;;;31.10;88.00;;;;;;5091221;28;20430;-89
2021/09/04 07:47:48;;;;;;;18.37;16.47;;;31.50;84.80;;;;;;5122435;28;20749;-90
2021/09/04 07:50:15;;;;;;;17.37;15.10;;;32.60;82.30;;;;;;5099504;28;20471;-89
2021/09/04 07:52:42;;;;;;;16.10;14.67;;;30.90;85.80;;;;;;5102354;28;20445;-92
2021/09/04 07:55:10;;;;;;;16.77;15.33;;;29.20;88.80;;;;;;5106887;28;20492;-90
2021/09/04 07:57:37;;;;;;;18.07;16.40;;;29.00;90.10;;;;;;5087748;28;20430;-88
2021/09/04 08:00:05;;;;;;;17.80;16.10;;;28.00;92.20;;;;;;5105240;28;20431;-91
2021/09/04 08:02:33;;;;;;;16.40;14.83;;;28.50;91.30;;;;;;5124300;27;20443;-87
2021/09/04 08:05:00;;;;;;;19.33;17.40;;;29.10;90.30;;;;;;5099660;28;20508;-88
2021/09/04 08:07:28;;;;;;;16.60;15.30;;;30.90;86.30;;;;;;5122060;28;20597;-88
2021/09/04 08:09:55;;;;;;;17.00;15.57;;;32.00;83.70;;;;;;5099611;28;20444;-90
2021/09/04 08:12:24;;;;;;;17.57;15.93;;;32.40;80.90;;;;;;5098658;28;20496;-89
2021/09/04 08:14:51;;;;;;;18.27;16.47;;;32.80;80.10;;;;;;5125368;28;20815;-89
2021/09/04 08:17:19;;;;;;;17.47;15.80;;;32.10;80.00;;;;;;5119391;28;20436;-91
2021/09/04 08:19:46;;;;;;;20.93;17.30;;;32.10;79.20;;;;;;5124523;28;20436;-91
2021/09/04 08:22:14;;;;;;;16.03;14.63;;;33.30;77.80;;;;;;5126095;27;20436;-91
2021/09/04 08:24:43;;;;;;;16.47;14.77;;;33.40;75.90;;;;;;5117995;28;20733;-89
2021/09/04 08:27:10;;;;;;;17.70;16.10;;;32.30;76.70;;;;;;5088689;28;20544;-88
2021/09/04 08:29:37;;;;;;;16.50;15.10;;;31.60;78.50;;;;;;5117696;28;20447;-91
2021/09/04 08:32:05;;;;;;;18.03;16.37;;;31.60;79.20;;;;;;5114679;28;20490;-90
2021/09/04 08:34:35;;;;;;;17.10;15.70;;;32.10;76.90;;;;;;5134151;27;20482;-91
2021/09/04 08:37:06;;;;;;;17.60;15.80;;;29.90;81.70;;;;;;5097766;28;20458;-89
2021/09/04 08:39:33;;;;;;;16.07;14.67;;;30.60;79.70;;;;;;5121566;28;20492;-90
2021/09/04 08:42:01;;;;;;;16.80;15.30;;;32.20;76.40;;;;;;5102369;28;20446;-89
2021/09/04 08:44:29;;;;;;;15.73;14.53;;;31.90;76.80;;;;;;5123954;28;20456;-88
2021/09/04 08:46:57;;;;;;;17.77;15.97;;;31.50;77.10;;;;;;5095549;28;20438;-88
2021/09/04 08:49:27;;;;;;;16.60;15.00;;;32.40;76.20;;;;;;5127703;27;20454;-88
2021/09/04 08:51:56;;;;;;;16.00;14.60;;;34.10;71.20;;;;;;5118466;27;20519;-87
2021/09/04 08:54:23;;;;;;;16.23;14.67;;;34.30;70.20;;;;;;5105621;28;20481;-87
2021/09/04 08:56:51;;;;;;;15.63;14.20;;;34.50;69.00;;;;;;5115044;28;20432;-85
2021/09/04 08:59:18;;;;;;;16.13;14.77;;;32.70;72.20;;;;;;5116411;28;20645;-88
2021/09/04 09:01:45;;;;;;;16.33;15.03;;;30.60;79.00;;;;;;5105422;28;20436;-86
2021/09/04 09:04:17;;;;;;;16.60;15.20;;;31.20;76.40;;;;;;5109512;28;20427;-88
2021/09/04 09:06:46;;;;;;;17.57;15.90;;;30.90;77.20;;;;;;5110515;28;20494;-86
2021/09/04 09:09:21;;;;;;;17.10;15.57;;;31.10;77.00;;;;;;5115626;28;20547;-88
2021/09/04 09:11:54;;;;;;;18.13;16.33;;;30.40;77.90;;;;;;5098935;28;20438;-89
2021/09/04 09:14:24;;;;;;;17.83;16.30;;;29.90;81.10;;;;;;5110925;28;21289;-88
2021/09/04 09:16:56;;;;;;;15.57;14.10;;;28.80;82.70;;;;;;5103388;28;20433;-85
2021/09/04 09:19:40;;;;;;;16.63;15.33;;;29.50;81.30;;;;;;5108008;28;20762;-87
2021/09/04 09:22:16;;;;;;;16.47;15.00;;;29.20;82.80;;;;;;5091969;28;20454;-87
2021/09/04 09:24:45;;;;;;;17.07;15.37;;;27.80;86.00;;;;;;5091444;28;20479;-86
2021/09/04 09:27:19;;;;;;;17.07;15.47;;;25.50;91.30;;;;;;5105981;28;20427;-85
2021/09/04 09:29:49;;;;;;;16.13;14.50;;;24.60;92.70;;;;;;5120841;28;20433;-87
2021/09/04 09:32:16;;;;;;;15.73;14.30;;;24.10;94.60;;;;;;5114566;28;20623;-90
2021/09/04 09:34:45;;;;;;;20.73;15.33;;;23.60;95.20;;;;;;5122235;28;20476;-88
2021/09/04 09:37:14;;;;;;;17.27;14.40;;;23.40;95.80;;;;;;5114903;28;20474;-86
2021/09/04 09:39:45;;;;;;;15.37;13.10;;;23.40;96.70;;;;;;5102143;28;20601;-90
2021/09/04 09:42:13;;;;;;;20.23;14.17;;;23.10;97.00;;;;;;5107571;28;20434;-88
2021/09/04 09:44:41;;;;;;;14.73;13.23;;;23.20;97.40;;;;;;5102777;28;20400;-86
2021/09/04 09:47:17;;;;;;;14.40;12.70;;;23.20;97.80;;;;;;5101658;27;20436;-89
2021/09/04 09:49:45;;;;;;;16.13;13.53;;;23.10;98.50;;;;;;5098544;28;20569;-89
2021/09/04 09:52:19;;;;;;;12.97;11.90;;;23.00;98.20;;;;;;5115803;28;20503;-88
2021/09/04 09:54:47;;;;;;;15.90;13.33;;;22.50;99.10;;;;;;5094958;28;20498;-88
2021/09/04 09:57:15;;;;;;;14.57;13.07;;;22.30;99.90;;;;;;5114109;28;20493;-88
2021/09/04 09:59:46;;;;;;;15.20;13.60;;;22.30;99.90;;;;;;5112769;28;20419;-88
2021/09/04 10:02:15;;;;;;;14.10;12.80;;;21.90;99.90;;;;;;5118607;28;20797;-87
2021/09/04 10:04:47;;;;;;;13.50;11.97;;;21.90;99.90;;;;;;5098327;28;20441;-88
2021/09/04 10:07:22;;;;;;;15.60;13.33;;;22.00;99.90;;;;;;5109696;28;20438;-85
2021/09/04 10:09:50;;;;;;;16.67;12.57;;;22.30;99.90;;;;;;5119099;28;20430;-86
2021/09/04 10:12:18;;;;;;;14.30;12.80;;;22.90;99.80;;;;;;5095524;28;20401;-88
2021/09/04 10:14:47;;;;;;;16.80;13.67;;;23.50;99.10;;;;;;5107067;28;20488;-87
2021/09/04 10:17:15;;;;;;;14.47;13.07;;;24.20;98.30;;;;;;5103132;28;20528;-87
2021/09/04 10:19:42;;;;;;;16.17;14.50;;;24.80;97.80;;;;;;5092984;28;20549;-87
2021/09/04 10:22:10;;;;;;;14.97;13.37;;;25.00;96.60;;;;;;5110158;28;20445;-86
2021/09/04 10:24:48;;;;;;;13.43;12.13;;;25.20;95.80;;;;;;5114085;28;20434;-88
2021/09/04 10:27:29;;;;;;;14.60;13.13;;;25.00;95.90;;;;;;5121021;28;20659;-88
2021/09/04 10:29:56;;;;;;;17.43;11.97;;;24.60;96.20;;;;;;5097549;28;20427;-89
2021/09/04 10:32:24;;;;;;;16.10;14.33;;;24.00;98.60;;;;;;5099436;28;20782;-88
2021/09/04 10:35:05;;;;;;;15.83;11.87;;;23.90;98.10;;;;;;5111720;28;20505;-89
2021/09/04 10:37:43;;;;;;;13.50;12.20;;;23.70;97.70;;;;;;5094087;28;20438;-88
2021/09/04 10:40:13;;;;;;;14.33;12.33;;;23.10;99.20;;;;;;5102294;28;20441;-89
2021/09/04 10:42:43;;;;;;;14.40;11.90;;;22.80;99.30;;;;;;5100549;28;20446;-87
2021/09/04 10:45:16;;;;;;;14.40;13.10;;;22.80;99.70;;;;;;5109653;28;20450;-87
2021/09/04 10:47:48;;;;;;;17.63;12.87;;;22.90;99.00;;;;;;5093433;28;20440;-87
2021/09/04 10:50:20;;;;;;;17.57;13.97;;;22.90;99.20;;;;;;5108607;28;20579;-88
2021/09/04 10:52:56;;;;;;;17.23;12.77;;;23.00;98.90;;;;;;5109533;28;20484;-84
2021/09/04 10:55:38;;;;;;;17.07;13.80;;;23.30;98.20;;;;;;5117587;28;20432;-87
2021/09/04 10:58:16;;;;;;;13.67;12.17;;;23.20;98.10;;;;;;5098441;28;20773;-87
2021/09/04 11:00:49;;;;;;;14.43;12.70;;;23.50;96.90;;;;;;5091318;28;20435;-88
2021/09/04 11:03:20;;;;;;;14.60;13.07;;;23.90;97.50;;;;;;5103780;28;20471;-88
2021/09/04 11:05:51;;;;;;;12.90;11.70;;;24.20;96.80;;;;;;5105063;28;20852;-87
2021/09/04 11:08:34;;;;;;;12.70;11.40;;;24.00;96.70;;;;;;5111269;28;20607;-89
2021/09/04 11:11:08;;;;;;;14.63;13.23;;;23.70;97.80;;;;;;5098516;28;20441;-92
2021/09/04 11:13:41;;;;;;;15.40;13.97;;;23.30;97.90;;;;;;5105917;28;20426;-88
2021/09/04 11:16:35;;;;;;;13.80;12.10;;;23.00;98.60;;;;;;5102880;28;20667;-86
2021/09/04 11:19:26;;;;;;;18.13;14.27;;;22.40;98.70;;;;;;5098670;28;20404;-88
2021/09/04 11:22:10;;;;;;;13.50;12.13;;;22.20;99.40;;;;;;5097981;28;20741;-87
2021/09/04 11:24:38;;;;;;;13.93;12.10;;;22.00;99.60;;;;;;5116399;28;20737;-87
2021/09/04 11:27:19;;;;;;;12.80;11.70;;;22.30;99.20;;;;;;5118720;28;20457;-87
2021/09/04 11:29:52;;;;;;;12.20;10.93;;;22.70;99.60;;;;;;5100097;28;20427;-87
2021/09/04 11:32:23;;;;;;;13.37;11.70;;;23.20;98.40;;;;;;5090265;28;20408;-87
2021/09/04 11:34:53;;;;;;;14.07;12.17;;;23.70;97.50;;;;;;5123400;28;20574;-88
2021/09/04 11:37:34;;;;;;;13.93;12.53;;;24.10;96.60;;;;;;5088150;28;20442;-87
2021/09/04 11:40:12;;;;;;;12.33;11.03;;;24.40;96.20;;;;;;5103548;28;20415;-88
2021/09/04 11:42:49;;;;;;;12.53;11.40;;;24.60;95.80;;;;;;5110909;28;20650;-86
2021/09/04 11:45:22;;;;;;;12.67;11.37;;;24.20;95.70;;;;;;5117317;28;20442;-88
2021/09/04 11:47:52;;;;;;;12.87;11.67;;;23.50;97.30;;;;;;5095222;28;20593;-87
2021/09/04 11:50:25;;;;;;;14.43;12.90;;;23.30;98.30;;;;;;5094087;28;20435;-87
2021/09/04 11:52:53;;;;;;;15.27;12.90;;;23.20;98.00;;;;;;5096630;28;20820;-88
2021/09/04 11:55:23;;;;;;;13.20;11.90;;;23.20;97.60;;;;;;5104512;28;20437;-90
2021/09/04 11:57:53;;;;;;;16.00;12.33;;;23.20;97.20;;;;;;5115666;28;20616;-87
2021/09/04 12:00:28;;;;;;;11.60;10.60;;;23.30;97.30;;;;;;5116652;28;20409;-86
2021/09/04 12:03:04;;;;;;;13.63;12.37;;;23.10;96.70;;;;;;5124841;28;20400;-89
2021/09/04 12:05:39;;;;;;;15.50;11.43;;;22.80;97.40;;;;;;5100774;28;20438;-86
2021/09/04 12:08:11;;;;;;;12.27;10.93;;;22.60;98.50;;;;;;5105548;28;20437;-87
2021/09/04 12:10:40;;;;;;;15.80;11.30;;;22.80;98.40;;;;;;5099718;28;20495;-88
2021/09/04 12:13:24;;;;;;;12.67;11.30;;;23.00;97.60;;;;;;5127301;27;20413;-87
2021/09/04 12:15:57;;;;;;;11.70;10.53;;;23.20;97.50;;;;;;5090326;28;20840;-88
2021/09/04 12:18:32;;;;;;;13.67;11.37;;;23.50;96.80;;;;;;5115374;28;20446;-86
2021/09/04 12:21:26;;;;;;;11.70;10.70;;;23.40;96.70;;;;;;5118501;28;20461;-87
2021/09/04 12:23:56;;;;;;;14.77;11.20;;;23.10;96.10;;;;;;5121109;28;20739;-88
2021/09/04 12:26:23;;;;;;;12.37;11.10;;;22.90;96.70;;;;;;5114692;28;20441;-86
2021/09/04 12:29:07;;;;;;;11.23;10.03;;;23.20;96.30;;;;;;5116254;28;20416;-85
2021/09/04 12:31:46;;;;;;;11.17;10.03;;;23.60;95.80;;;;;;5090622;28;20431;-88
2021/09/04 12:34:19;;;;;;;11.20;10.20;;;24.10;95.40;;;;;;5104604;28;20524;-85
2021/09/04 12:36:46;;;;;;;14.43;11.33;;;24.50;93.80;;;;;;5116034;28;20786;-85